Terminal Aerodrome Forecast
Issued by NWS Kansas City/Pleasant Hill, MO

Home | Current Version | Previous Version | Text Only | Print | Product List | Glossary On
Versions: 1 2 3 4 5 6 7 8 9 10 11 12 13 14 15 16 17 18
000
FTUS43 KEAX 260500
TAFMCI
TAF
KMCI 260520Z 2606/2706 05010KT P6SM OVC005
      TEMPO 2606/2608 3SM -DZ OVC004
     FM261500 07010KT P6SM BKN015
     FM261800 08012KT P6SM SCT035=

USA.gov is the U.S. government's official web portal to all federal, state and local government web resources and services.